sensor_id;sensor_type;location;lat;lon;timestamp;temperature;humidity
35305;DHT22;26433;48.034;-1.764;2024-02-23T00:04:14;8.50;96.70
35305;DHT22;26433;48.034;-1.764;2024-02-23T00:09:18;8.50;97.20
35305;DHT22;26433;48.034;-1.764;2024-02-23T00:14:23;8.50;97.20
35305;DHT22;26433;48.034;-1.764;2024-02-23T00:19:26;8.50;97.10
35305;DHT22;26433;48.034;-1.764;2024-02-23T00:24:29;8.50;97.40
35305;DHT22;26433;48.034;-1.764;2024-02-23T00:29:34;8.50;97.50
35305;DHT22;26433;48.034;-1.764;2024-02-23T00:34:38;8.50;97.70
35305;DHT22;26433;48.034;-1.764;2024-02-23T00:39:42;8.50;97.60
35305;DHT22;26433;48.034;-1.764;2024-02-23T00:44:46;8.60;97.60
35305;DHT22;26433;48.034;-1.764;2024-02-23T00:49:50;8.50;97.30
35305;DHT22;26433;48.034;-1.764;2024-02-23T00:54:53;8.50;97.80
35305;DHT22;26433;48.034;-1.764;2024-02-23T00:59:58;8.60;98.00
35305;DHT22;26433;48.034;-1.764;2024-02-23T01:05:01;8.60;97.90
35305;DHT22;26433;48.034;-1.764;2024-02-23T01:10:05;8.60;97.90
35305;DHT22;26433;48.034;-1.764;2024-02-23T01:15:10;8.70;97.80
35305;DHT22;26433;48.034;-1.764;2024-02-23T01:20:14;8.70;97.60
35305;DHT22;26433;48.034;-1.764;2024-02-23T01:25:17;8.70;97.70
35305;DHT22;26433;48.034;-1.764;2024-02-23T01:30:22;8.60;97.70
35305;DHT22;26433;48.034;-1.764;2024-02-23T01:35:26;8.60;97.60
35305;DHT22;26433;48.034;-1.764;2024-02-23T01:40:29;8.60;97.80
35305;DHT22;26433;48.034;-1.764;2024-02-23T01:45:34;8.50;97.70
35305;DHT22;26433;48.034;-1.764;2024-02-23T01:50:38;8.60;97.50
35305;DHT22;26433;48.034;-1.764;2024-02-23T01:55:41;8.60;97.40
35305;DHT22;26433;48.034;-1.764;2024-02-23T02:00:46;8.60;97.30
35305;DHT22;26433;48.034;-1.764;2024-02-23T02:05:51;8.60;97.30
35305;DHT22;26433;48.034;-1.764;2024-02-23T02:10:55;8.60;97.50
35305;DHT22;26433;48.034;-1.764;2024-02-23T02:16:00;8.60;97.50
35305;DHT22;26433;48.034;-1.764;2024-02-23T02:21:04;8.60;97.90
35305;DHT22;26433;48.034;-1.764;2024-02-23T02:26:07;8.60;97.70
35305;DHT22;26433;48.034;-1.764;2024-02-23T02:31:12;8.60;97.70
35305;DHT22;26433;48.034;-1.764;2024-02-23T02:36:16;8.60;97.60
35305;DHT22;26433;48.034;-1.764;2024-02-23T02:41:19;8.60;97.70
35305;DHT22;26433;48.034;-1.764;2024-02-23T02:46:24;8.50;97.70
35305;DHT22;26433;48.034;-1.764;2024-02-23T02:51:28;8.40;97.90
35305;DHT22;26433;48.034;-1.764;2024-02-23T02:56:31;8.40;97.90
35305;DHT22;26433;48.034;-1.764;2024-02-23T03:01:36;8.40;98.30
35305;DHT22;26433;48.034;-1.764;2024-02-23T03:06:39;8.40;98.30
35305;DHT22;26433;48.034;-1.764;2024-02-23T03:11:43;8.50;98.20
35305;DHT22;26433;48.034;-1.764;2024-02-23T03:16:48;8.50;98.20
35305;DHT22;26433;48.034;-1.764;2024-02-23T03:21:51;8.40;98.00
35305;DHT22;26433;48.034;-1.764;2024-02-23T03:26:55;8.40;98.10
35305;DHT22;26433;48.034;-1.764;2024-02-23T03:32:00;8.50;98.10
35305;DHT22;26433;48.034;-1.764;2024-02-23T03:37:04;8.50;98.30
35305;DHT22;26433;48.034;-1.764;2024-02-23T03:42:08;8.40;98.40
35305;DHT22;26433;48.034;-1.764;2024-02-23T03:47:13;8.50;98.40
35305;DHT22;26433;48.034;-1.764;2024-02-23T03:52:16;8.50;98.30
35305;DHT22;26433;48.034;-1.764;2024-02-23T03:57:20;8.40;98.40
35305;DHT22;26433;48.034;-1.764;2024-02-23T04:02:24;8.40;98.20
35305;DHT22;26433;48.034;-1.764;2024-02-23T04:07:28;8.40;98.50
35305;DHT22;26433;48.034;-1.764;2024-02-23T04:12:31;8.30;98.40
35305;DHT22;26433;48.034;-1.764;2024-02-23T04:17:36;8.40;98.30
35305;DHT22;26433;48.034;-1.764;2024-02-23T04:22:40;8.30;98.40
35305;DHT22;26433;48.034;-1.764;2024-02-23T04:27:43;8.30;98.70
35305;DHT22;26433;48.034;-1.764;2024-02-23T04:32:48;8.30;98.60
35305;DHT22;26433;48.034;-1.764;2024-02-23T04:37:51;8.20;98.70
35305;DHT22;26433;48.034;-1.764;2024-02-23T04:42:55;8.20;99.10
35305;DHT22;26433;48.034;-1.764;2024-02-23T04:48:00;8.30;99.40
35305;DHT22;26433;48.034;-1.764;2024-02-23T04:53:04;8.30;99.20
35305;DHT22;26433;48.034;-1.764;2024-02-23T04:58:10;8.40;99.20
35305;DHT22;26433;48.034;-1.764;2024-02-23T05:03:15;8.40;99.10
35305;DHT22;26433;48.034;-1.764;2024-02-23T05:08:19;8.50;99.20
35305;DHT22;26433;48.034;-1.764;2024-02-23T05:13:22;8.50;99.10
35305;DHT22;26433;48.034;-1.764;2024-02-23T05:18:27;8.50;99.10
35305;DHT22;26433;48.034;-1.764;2024-02-23T05:23:30;8.50;99.30
35305;DHT22;26433;48.034;-1.764;2024-02-23T05:28:34;8.50;99.30
35305;DHT22;26433;48.034;-1.764;2024-02-23T05:33:38;8.50;99.40
35305;DHT22;26433;48.034;-1.764;2024-02-23T05:38:42;8.40;99.90
35305;DHT22;26433;48.034;-1.764;2024-02-23T05:43:48;8.50;99.70
35305;DHT22;26433;48.034;-1.764;2024-02-23T05:48:53;8.40;99.70
35305;DHT22;26433;48.034;-1.764;2024-02-23T05:53:56;8.40;99.80
35305;DHT22;26433;48.034;-1.764;2024-02-23T05:59:00;8.30;99.80
35305;DHT22;26433;48.034;-1.764;2024-02-23T06:04:04;8.30;99.90
35305;DHT22;26433;48.034;-1.764;2024-02-23T06:09:08;8.30;99.90
35305;DHT22;26433;48.034;-1.764;2024-02-23T06:14:11;8.20;99.90
35305;DHT22;26433;48.034;-1.764;2024-02-23T06:19:16;8.20;99.90
35305;DHT22;26433;48.034;-1.764;2024-02-23T06:24:20;8.10;99.90
35305;DHT22;26433;48.034;-1.764;2024-02-23T06:29:23;8.20;99.90
35305;DHT22;26433;48.034;-1.764;2024-02-23T06:34:28;8.10;99.90
35305;DHT22;26433;48.034;-1.764;2024-02-23T06:39:31;8.10;99.90
35305;DHT22;26433;48.034;-1.764;2024-02-23T06:44:35;8.10;99.90
35305;DHT22;26433;48.034;-1.764;2024-02-23T06:49:42;8.00;99.90
35305;DHT22;26433;48.034;-1.764;2024-02-23T06:54:45;8.00;99.90
35305;DHT22;26433;48.034;-1.764;2024-02-23T06:59:49;8.00;99.90
35305;DHT22;26433;48.034;-1.764;2024-02-23T07:04:54;7.90;99.90
35305;DHT22;26433;48.034;-1.764;2024-02-23T07:09:59;7.90;99.90
35305;DHT22;26433;48.034;-1.764;2024-02-23T07:15:02;8.00;99.90
35305;DHT22;26433;48.034;-1.764;2024-02-23T07:20:08;7.90;99.90
35305;DHT22;26433;48.034;-1.764;2024-02-23T07:25:11;8.00;99.90
35305;DHT22;26433;48.034;-1.764;2024-02-23T07:30:15;8.00;99.90
35305;DHT22;26433;48.034;-1.764;2024-02-23T07:35:20;8.00;99.90
35305;DHT22;26433;48.034;-1.764;2024-02-23T07:40:23;7.90;99.90
35305;DHT22;26433;48.034;-1.764;2024-02-23T07:45:27;8.00;99.90
35305;DHT22;26433;48.034;-1.764;2024-02-23T07:50:32;8.20;99.90
35305;DHT22;26433;48.034;-1.764;2024-02-23T07:55:35;8.30;99.90
35305;DHT22;26433;48.034;-1.764;2024-02-23T08:00:38;8.30;99.90
35305;DHT22;26433;48.034;-1.764;2024-02-23T08:05:43;8.50;99.90
35305;DHT22;26433;48.034;-1.764;2024-02-23T08:10:47;8.70;99.30
35305;DHT22;26433;48.034;-1.764;2024-02-23T08:15:50;8.70;99.30
35305;DHT22;26433;48.034;-1.764;2024-02-23T08:20:55;8.70;99.20
35305;DHT22;26433;48.034;-1.764;2024-02-23T08:25:58;9.00;99.20
35305;DHT22;26433;48.034;-1.764;2024-02-23T08:31:03;9.10;98.90
35305;DHT22;26433;48.034;-1.764;2024-02-23T08:36:08;9.20;98.70
35305;DHT22;26433;48.034;-1.764;2024-02-23T08:41:13;9.50;98.90
35305;DHT22;26433;48.034;-1.764;2024-02-23T08:46:17;9.10;98.50
35305;DHT22;26433;48.034;-1.764;2024-02-23T08:51:22;9.00;98.80
35305;DHT22;26433;48.034;-1.764;2024-02-23T08:56:26;9.30;99.10
35305;DHT22;26433;48.034;-1.764;2024-02-23T09:01:29;9.20;98.90
35305;DHT22;26433;48.034;-1.764;2024-02-23T09:06:34;9.20;99.10
35305;DHT22;26433;48.034;-1.764;2024-02-23T09:11:41;9.30;98.90
35305;DHT22;26433;48.034;-1.764;2024-02-23T09:16:44;9.40;98.90
35305;DHT22;26433;48.034;-1.764;2024-02-23T09:21:49;9.40;98.80
35305;DHT22;26433;48.034;-1.764;2024-02-23T09:26:53;9.40;98.40
35305;DHT22;26433;48.034;-1.764;2024-02-23T09:31:56;9.40;98.60
35305;DHT22;26433;48.034;-1.764;2024-02-23T09:37:01;9.30;99.10
35305;DHT22;26433;48.034;-1.764;2024-02-23T09:42:05;9.40;98.70
35305;DHT22;26433;48.034;-1.764;2024-02-23T09:47:11;9.40;98.20
35305;DHT22;26433;48.034;-1.764;2024-02-23T09:52:16;9.30;98.10
35305;DHT22;26433;48.034;-1.764;2024-02-23T09:57:21;9.30;97.90
35305;DHT22;26433;48.034;-1.764;2024-02-23T10:02:25;9.40;98.30
35305;DHT22;26433;48.034;-1.764;2024-02-23T10:07:29;9.60;97.70
35305;DHT22;26433;48.034;-1.764;2024-02-23T10:12:33;9.60;96.80
35305;DHT22;26433;48.034;-1.764;2024-02-23T10:17:37;9.60;96.70
35305;DHT22;26433;48.034;-1.764;2024-02-23T10:22:43;9.50;96.70
35305;DHT22;26433;48.034;-1.764;2024-02-23T10:27:48;9.60;96.60
35305;DHT22;26433;48.034;-1.764;2024-02-23T10:32:51;9.70;96.80
35305;DHT22;26433;48.034;-1.764;2024-02-23T10:37:59;9.80;95.70
35305;DHT22;26433;48.034;-1.764;2024-02-23T10:43:03;10.00;95.00
35305;DHT22;26433;48.034;-1.764;2024-02-23T10:48:08;10.00;94.50
35305;DHT22;26433;48.034;-1.764;2024-02-23T10:53:15;10.20;93.50
35305;DHT22;26433;48.034;-1.764;2024-02-23T10:58:19;10.20;93.00
35305;DHT22;26433;48.034;-1.764;2024-02-23T11:03:22;10.20;93.10
35305;DHT22;26433;48.034;-1.764;2024-02-23T11:08:28;10.30;93.10
35305;DHT22;26433;48.034;-1.764;2024-02-23T11:13:34;10.40;92.90
35305;DHT22;26433;48.034;-1.764;2024-02-23T11:18:39;10.70;92.90
35305;DHT22;26433;48.034;-1.764;2024-02-23T11:23:45;11.60;89.40
35305;DHT22;26433;48.034;-1.764;2024-02-23T11:28:51;12.10;86.60
35305;DHT22;26433;48.034;-1.764;2024-02-23T11:33:56;12.30;83.50
35305;DHT22;26433;48.034;-1.764;2024-02-23T11:39:01;12.10;81.90
35305;DHT22;26433;48.034;-1.764;2024-02-23T11:44:05;11.50;84.00
35305;DHT22;26433;48.034;-1.764;2024-02-23T11:49:09;11.40;85.20
35305;DHT22;26433;48.034;-1.764;2024-02-23T11:54:14;11.30;86.20
35305;DHT22;26433;48.034;-1.764;2024-02-23T11:59:18;11.10;86.80
35305;DHT22;26433;48.034;-1.764;2024-02-23T12:04:21;11.10;87.90
35305;DHT22;26433;48.034;-1.764;2024-02-23T12:09:26;11.40;87.30
35305;DHT22;26433;48.034;-1.764;2024-02-23T12:14:30;11.40;87.20
35305;DHT22;26433;48.034;-1.764;2024-02-23T12:19:33;11.80;83.30
35305;DHT22;26433;48.034;-1.764;2024-02-23T12:24:42;11.70;83.00
35305;DHT22;26433;48.034;-1.764;2024-02-23T12:29:50;11.60;83.60
35305;DHT22;26433;48.034;-1.764;2024-02-23T12:34:53;11.40;83.80
35305;DHT22;26433;48.034;-1.764;2024-02-23T12:39:58;11.20;84.50
35305;DHT22;26433;48.034;-1.764;2024-02-23T12:45:02;11.20;84.60
35305;DHT22;26433;48.034;-1.764;2024-02-23T12:50:06;10.70;84.50
35305;DHT22;26433;48.034;-1.764;2024-02-23T12:55:13;11.70;82.40
35305;DHT22;26433;48.034;-1.764;2024-02-23T13:00:17;12.00;80.20
35305;DHT22;26433;48.034;-1.764;2024-02-23T13:05:20;12.10;80.10
35305;DHT22;26433;48.034;-1.764;2024-02-23T13:10:25;12.30;79.10
35305;DHT22;26433;48.034;-1.764;2024-02-23T13:15:29;12.50;78.10
35305;DHT22;26433;48.034;-1.764;2024-02-23T13:20:32;12.80;77.70
35305;DHT22;26433;48.034;-1.764;2024-02-23T13:25:37;13.00;76.10
35305;DHT22;26433;48.034;-1.764;2024-02-23T13:30:41;13.30;78.30
35305;DHT22;26433;48.034;-1.764;2024-02-23T13:35:45;12.40;77.80
35305;DHT22;26433;48.034;-1.764;2024-02-23T13:40:49;11.90;78.90
35305;DHT22;26433;48.034;-1.764;2024-02-23T13:45:53;11.60;79.70
35305;DHT22;26433;48.034;-1.764;2024-02-23T13:50:57;11.30;79.80
35305;DHT22;26433;48.034;-1.764;2024-02-23T13:56:06;10.90;80.80
35305;DHT22;26433;48.034;-1.764;2024-02-23T14:01:10;10.80;80.40
35305;DHT22;26433;48.034;-1.764;2024-02-23T14:06:13;10.70;80.50
35305;DHT22;26433;48.034;-1.764;2024-02-23T14:11:18;10.50;80.70
35305;DHT22;26433;48.034;-1.764;2024-02-23T14:16:22;10.30;80.30
35305;DHT22;26433;48.034;-1.764;2024-02-23T14:21:26;10.00;80.00
35305;DHT22;26433;48.034;-1.764;2024-02-23T14:26:31;9.60;81.40
35305;DHT22;26433;48.034;-1.764;2024-02-23T14:31:35;9.60;83.00
35305;DHT22;26433;48.034;-1.764;2024-02-23T14:36:38;9.60;82.50
35305;DHT22;26433;48.034;-1.764;2024-02-23T14:41:43;9.80;82.20
35305;DHT22;26433;48.034;-1.764;2024-02-23T14:46:47;9.90;82.10
35305;DHT22;26433;48.034;-1.764;2024-02-23T14:51:50;10.00;81.30
35305;DHT22;26433;48.034;-1.764;2024-02-23T14:56:55;10.20;82.10
35305;DHT22;26433;48.034;-1.764;2024-02-23T15:01:58;10.70;80.30
35305;DHT22;26433;48.034;-1.764;2024-02-23T15:07:02;10.70;79.40
35305;DHT22;26433;48.034;-1.764;2024-02-23T15:12:07;10.80;80.10
35305;DHT22;26433;48.034;-1.764;2024-02-23T15:17:10;10.50;80.60
35305;DHT22;26433;48.034;-1.764;2024-02-23T15:22:14;10.00;81.40
35305;DHT22;26433;48.034;-1.764;2024-02-23T15:27:19;9.60;82.50
35305;DHT22;26433;48.034;-1.764;2024-02-23T15:32:22;9.60;86.60
35305;DHT22;26433;48.034;-1.764;2024-02-23T15:37:26;8.20;91.50
35305;DHT22;26433;48.034;-1.764;2024-02-23T15:42:33;8.50;91.00
35305;DHT22;26433;48.034;-1.764;2024-02-23T15:47:38;8.80;90.20
35305;DHT22;26433;48.034;-1.764;2024-02-23T15:52:41;9.20;88.40
35305;DHT22;26433;48.034;-1.764;2024-02-23T15:57:46;9.30;86.50
35305;DHT22;26433;48.034;-1.764;2024-02-23T16:02:50;9.10;87.90
35305;DHT22;26433;48.034;-1.764;2024-02-23T16:07:53;8.90;89.80
35305;DHT22;26433;48.034;-1.764;2024-02-23T16:12:59;9.00;89.50
35305;DHT22;26433;48.034;-1.764;2024-02-23T16:18:03;9.10;89.10
35305;DHT22;26433;48.034;-1.764;2024-02-23T16:23:07;9.40;88.80
35305;DHT22;26433;48.034;-1.764;2024-02-23T16:28:11;9.50;88.30
35305;DHT22;26433;48.034;-1.764;2024-02-23T16:33:15;9.50;87.90
35305;DHT22;26433;48.034;-1.764;2024-02-23T16:38:18;9.50;87.90
35305;DHT22;26433;48.034;-1.764;2024-02-23T16:43:24;9.40;88.00
35305;DHT22;26433;48.034;-1.764;2024-02-23T16:48:28;9.20;89.20
35305;DHT22;26433;48.034;-1.764;2024-02-23T16:53:31;9.00;90.00
35305;DHT22;26433;48.034;-1.764;2024-02-23T16:58:36;8.90;90.30
35305;DHT22;26433;48.034;-1.764;2024-02-23T17:03:42;8.80;90.50
35305;DHT22;26433;48.034;-1.764;2024-02-23T17:08:50;8.80;90.50
35305;DHT22;26433;48.034;-1.764;2024-02-23T17:13:56;8.70;90.60
35305;DHT22;26433;48.034;-1.764;2024-02-23T17:19:00;8.70;90.80
35305;DHT22;26433;48.034;-1.764;2024-02-23T17:24:03;8.70;90.70
35305;DHT22;26433;48.034;-1.764;2024-02-23T17:29:08;8.50;91.00
35305;DHT22;26433;48.034;-1.764;2024-02-23T17:34:14;8.50;91.50
35305;DHT22;26433;48.034;-1.764;2024-02-23T17:39:18;8.40;91.70
35305;DHT22;26433;48.034;-1.764;2024-02-23T17:44:23;8.40;91.60
35305;DHT22;26433;48.034;-1.764;2024-02-23T17:49:30;8.40;91.60
35305;DHT22;26433;48.034;-1.764;2024-02-23T17:54:33;8.40;91.40
35305;DHT22;26433;48.034;-1.764;2024-02-23T17:59:38;8.40;91.60
35305;DHT22;26433;48.034;-1.764;2024-02-23T18:04:42;8.40;91.90
35305;DHT22;26433;48.034;-1.764;2024-02-23T18:09:48;8.30;91.70
35305;DHT22;26433;48.034;-1.764;2024-02-23T18:14:53;8.30;91.90
35305;DHT22;26433;48.034;-1.764;2024-02-23T18:19:56;8.30;91.80
35305;DHT22;26433;48.034;-1.764;2024-02-23T18:25:00;8.30;91.90
35305;DHT22;26433;48.034;-1.764;2024-02-23T18:30:05;8.20;91.80
35305;DHT22;26433;48.034;-1.764;2024-02-23T18:35:09;8.00;92.50
35305;DHT22;26433;48.034;-1.764;2024-02-23T18:40:14;7.90;92.40
35305;DHT22;26433;48.034;-1.764;2024-02-23T18:45:19;7.80;92.50
35305;DHT22;26433;48.034;-1.764;2024-02-23T18:50:22;7.70;92.80
35305;DHT22;26433;48.034;-1.764;2024-02-23T18:55:26;7.50;93.40
35305;DHT22;26433;48.034;-1.764;2024-02-23T19:00:32;7.40;93.70
35305;DHT22;26433;48.034;-1.764;2024-02-23T19:05:35;7.30;93.90
35305;DHT22;26433;48.034;-1.764;2024-02-23T19:10:39;7.10;94.40
35305;DHT22;26433;48.034;-1.764;2024-02-23T19:15:44;7.10;94.50
35305;DHT22;26433;48.034;-1.764;2024-02-23T19:20:48;7.00;94.50
35305;DHT22;26433;48.034;-1.764;2024-02-23T19:25:52;7.00;94.40
35305;DHT22;26433;48.034;-1.764;2024-02-23T19:30:57;7.00;94.20
35305;DHT22;26433;48.034;-1.764;2024-02-23T19:36:00;7.00;94.20
35305;DHT22;26433;48.034;-1.764;2024-02-23T19:41:04;7.00;94.10
35305;DHT22;26433;48.034;-1.764;2024-02-23T19:46:09;6.90;94.40
35305;DHT22;26433;48.034;-1.764;2024-02-23T19:51:18;6.80;94.90
35305;DHT22;26433;48.034;-1.764;2024-02-23T19:56:22;6.70;95.00
35305;DHT22;26433;48.034;-1.764;2024-02-23T20:01:27;6.70;95.00
35305;DHT22;26433;48.034;-1.764;2024-02-23T20:06:31;6.70;95.30
35305;DHT22;26433;48.034;-1.764;2024-02-23T20:11:34;6.60;95.50
35305;DHT22;26433;48.034;-1.764;2024-02-23T20:16:39;6.60;95.50
35305;DHT22;26433;48.034;-1.764;2024-02-23T20:21:42;6.60;95.60
35305;DHT22;26433;48.034;-1.764;2024-02-23T20:26:46;6.60;95.70
35305;DHT22;26433;48.034;-1.764;2024-02-23T20:31:51;6.60;95.60
35305;DHT22;26433;48.034;-1.764;2024-02-23T20:36:55;6.60;95.80
35305;DHT22;26433;48.034;-1.764;2024-02-23T20:41:58;6.50;95.70
35305;DHT22;26433;48.034;-1.764;2024-02-23T20:47:03;6.60;95.50
35305;DHT22;26433;48.034;-1.764;2024-02-23T20:52:07;6.50;95.50
35305;DHT22;26433;48.034;-1.764;2024-02-23T20:57:12;6.60;95.30
35305;DHT22;26433;48.034;-1.764;2024-02-23T21:02:17;6.60;95.40
35305;DHT22;26433;48.034;-1.764;2024-02-23T21:07:23;6.50;95.20
35305;DHT22;26433;48.034;-1.764;2024-02-23T21:12:27;6.30;95.60
35305;DHT22;26433;48.034;-1.764;2024-02-23T21:17:32;6.30;96.30
35305;DHT22;26433;48.034;-1.764;2024-02-23T21:22:35;6.20;96.60
35305;DHT22;26433;48.034;-1.764;2024-02-23T21:27:39;6.10;96.90
35305;DHT22;26433;48.034;-1.764;2024-02-23T21:32:44;6.10;96.70
35305;DHT22;26433;48.034;-1.764;2024-02-23T21:37:47;6.00;96.60
35305;DHT22;26433;48.034;-1.764;2024-02-23T21:42:51;6.10;96.80
35305;DHT22;26433;48.034;-1.764;2024-02-23T21:47:55;6.10;96.80
35305;DHT22;26433;48.034;-1.764;2024-02-23T21:52:59;6.10;97.30
35305;DHT22;26433;48.034;-1.764;2024-02-23T21:58:03;6.00;97.20
35305;DHT22;26433;48.034;-1.764;2024-02-23T22:03:07;6.00;97.20
35305;DHT22;26433;48.034;-1.764;2024-02-23T22:08:11;6.00;97.00
35305;DHT22;26433;48.034;-1.764;2024-02-23T22:13:14;6.10;96.90
35305;DHT22;26433;48.034;-1.764;2024-02-23T22:18:19;6.00;96.80
35305;DHT22;26433;48.034;-1.764;2024-02-23T22:23:23;6.00;96.90
35305;DHT22;26433;48.034;-1.764;2024-02-23T22:28:27;6.00;97.00
35305;DHT22;26433;48.034;-1.764;2024-02-23T22:33:31;6.00;97.00
35305;DHT22;26433;48.034;-1.764;2024-02-23T22:38:35;5.70;96.90
35305;DHT22;26433;48.034;-1.764;2024-02-23T22:43:38;6.00;96.90
35305;DHT22;26433;48.034;-1.764;2024-02-23T22:48:44;5.90;96.80
35305;DHT22;26433;48.034;-1.764;2024-02-23T22:53:47;5.90;97.10
35305;DHT22;26433;48.034;-1.764;2024-02-23T22:58:51;6.00;96.90
35305;DHT22;26433;48.034;-1.764;2024-02-23T23:03:55;6.00;96.70
35305;DHT22;26433;48.034;-1.764;2024-02-23T23:08:59;5.90;96.80
35305;DHT22;26433;48.034;-1.764;2024-02-23T23:14:02;5.90;96.90
35305;DHT22;26433;48.034;-1.764;2024-02-23T23:19:07;5.90;96.80
35305;DHT22;26433;48.034;-1.764;2024-02-23T23:24:11;5.90;97.10
35305;DHT22;26433;48.034;-1.764;2024-02-23T23:29:14;6.00;96.60
35305;DHT22;26433;48.034;-1.764;2024-02-23T23:34:19;5.90;96.80
35305;DHT22;26433;48.034;-1.764;2024-02-23T23:39:23;5.90;96.90
35305;DHT22;26433;48.034;-1.764;2024-02-23T23:44:26;5.90;96.80
35305;DHT22;26433;48.034;-1.764;2024-02-23T23:49:31;5.80;97.30
35305;DHT22;26433;48.034;-1.764;2024-02-23T23:54:34;5.90;97.10
35305;DHT22;26433;48.034;-1.764;2024-02-23T23:59:38;5.80;96.90
